Time;durP1;ratioP1;P1;durP2;ratioP2;P2;SDS_P1;SDS_P2;PMS_P1;PMS_P2;Temp;Humidity;BMP_temperature;BMP_pressure;BME280_temperature;BME280_humidity;BME280_pressure;Samples;Min_cycle;Max_cycle;Signal;HPM_P1;HPM_P2
2023/09/09 00:01:33;;;;;;;18.85;13.60;;;19.60;99.90;;;;;;4925654;29;20044;-84
2023/09/09 00:03:59;;;;;;;16.48;12.65;;;19.60;99.90;;;;;;4928453;29;20126;-85
2023/09/09 00:06:25;;;;;;;16.25;11.52;;;19.60;99.90;;;;;;4926165;29;20043;-86
2023/09/09 00:08:50;;;;;;;18.10;12.82;;;19.50;99.90;;;;;;4923231;29;20032;-85
2023/09/09 00:11:16;;;;;;;19.83;14.30;;;19.50;99.90;;;;;;4929552;29;20078;-84
2023/09/09 00:13:41;;;;;;;18.77;13.32;;;19.50;99.90;;;;;;4941591;29;20047;-84
2023/09/09 00:16:09;;;;;;;14.48;10.27;;;19.50;99.90;;;;;;4929105;29;20039;-83
2023/09/09 00:18:34;;;;;;;12.75;10.15;;;19.50;99.90;;;;;;4932180;29;20124;-84
2023/09/09 00:21:00;;;;;;;11.45;9.40;;;19.50;99.90;;;;;;4916535;29;20241;-85
2023/09/09 00:23:26;;;;;;;12.07;9.45;;;19.50;99.90;;;;;;4940983;29;20469;-84
2023/09/09 00:25:51;;;;;;;13.32;8.75;;;19.40;99.90;;;;;;4925600;29;20036;-85
2023/09/09 00:28:17;;;;;;;11.45;8.30;;;19.40;99.90;;;;;;4951860;28;20039;-85
2023/09/09 00:30:43;;;;;;;9.82;8.82;;;19.40;99.90;;;;;;4928284;29;20146;-83
2023/09/09 00:33:09;;;;;;;10.25;8.27;;;19.40;99.90;;;;;;4921952;29;20032;-83
2023/09/09 00:35:37;;;;;;;12.98;8.23;;;19.40;99.90;;;;;;4921086;29;20093;-84
2023/09/09 00:38:03;;;;;;;10.68;8.18;;;19.40;99.90;;;;;;4926831;29;20080;-84
2023/09/09 00:40:28;;;;;;;12.02;8.73;;;19.30;99.90;;;;;;4921567;29;20130;-84
2023/09/09 00:42:54;;;;;;;10.15;8.32;;;19.30;99.90;;;;;;4916428;29;20032;-84
2023/09/09 00:45:19;;;;;;;10.98;8.43;;;19.30;99.90;;;;;;4928094;29;20072;-85
2023/09/09 00:47:46;;;;;;;10.82;8.52;;;19.30;99.90;;;;;;4915643;29;20039;-84
2023/09/09 00:50:13;;;;;;;12.77;9.00;;;19.20;99.90;;;;;;4931136;29;20028;-84
2023/09/09 00:52:40;;;;;;;9.98;8.80;;;19.20;99.90;;;;;;4929960;29;20035;-84
2023/09/09 00:55:09;;;;;;;12.20;9.95;;;19.20;99.90;;;;;;4921730;29;20081;-84
2023/09/09 00:57:35;;;;;;;14.20;10.05;;;19.20;99.90;;;;;;4928923;29;20434;-84
2023/09/09 01:00:03;;;;;;;11.38;8.93;;;19.10;99.90;;;;;;4927941;29;20032;-83
2023/09/09 01:02:30;;;;;;;11.77;9.10;;;19.10;99.90;;;;;;4923427;29;20047;-85
2023/09/09 01:04:59;;;;;;;10.45;8.95;;;19.10;99.90;;;;;;4927940;29;20080;-84
2023/09/09 01:07:26;;;;;;;11.27;8.70;;;19.10;99.90;;;;;;4925629;29;20032;-84
2023/09/09 01:09:52;;;;;;;11.55;9.18;;;19.00;99.90;;;;;;4954012;28;20031;-84
2023/09/09 01:12:18;;;;;;;14.07;9.05;;;19.00;99.90;;;;;;4924595;29;20039;-84
2023/09/09 01:14:44;;;;;;;10.50;8.82;;;19.00;99.90;;;;;;4933699;29;20040;-85
2023/09/09 01:17:10;;;;;;;9.60;8.60;;;18.90;99.90;;;;;;4923470;29;20549;-83
2023/09/09 01:19:36;;;;;;;11.43;9.07;;;18.90;99.90;;;;;;4947460;28;20032;-83
2023/09/09 01:22:08;;;;;;;13.73;9.43;;;18.90;99.90;;;;;;4919211;29;20063;-84
2023/09/09 01:24:34;;;;;;;10.00;8.48;;;18.90;99.90;;;;;;4924742;29;20059;-84
2023/09/09 01:27:00;;;;;;;13.13;8.85;;;18.80;99.90;;;;;;4927346;29;20095;-83
2023/09/09 01:29:25;;;;;;;10.38;8.52;;;18.80;99.90;;;;;;4930385;29;20115;-85
2023/09/09 01:31:51;;;;;;;9.13;8.13;;;18.70;99.90;;;;;;4948947;28;20035;-85
2023/09/09 01:34:17;;;;;;;10.07;8.07;;;18.70;99.90;;;;;;4922287;29;20451;-84
2023/09/09 01:36:42;;;;;;;10.65;7.72;;;18.70;99.90;;;;;;4928300;29;20095;-84
2023/09/09 01:39:08;;;;;;;9.05;8.15;;;18.70;99.90;;;;;;4927458;29;20027;-84
2023/09/09 01:41:33;;;;;;;9.32;7.72;;;18.60;99.90;;;;;;4943526;29;20035;-84
2023/09/09 01:43:59;;;;;;;10.55;8.75;;;18.70;99.90;;;;;;4924590;29;20028;-84
2023/09/09 01:46:25;;;;;;;11.27;8.85;;;18.60;99.90;;;;;;4916993;29;20519;-83
2023/09/09 01:48:50;;;;;;;10.45;9.25;;;18.60;99.90;;;;;;4946185;28;20147;-85
2023/09/09 01:51:16;;;;;;;13.20;9.68;;;18.60;99.90;;;;;;4923075;29;20099;-84
2023/09/09 01:53:41;;;;;;;12.77;9.40;;;18.60;99.90;;;;;;4920462;29;20090;-83
2023/09/09 01:56:07;;;;;;;12.45;10.02;;;18.60;99.90;;;;;;4914907;29;20433;-85
2023/09/09 01:58:32;;;;;;;13.27;10.18;;;18.60;99.90;;;;;;4922628;29;20027;-84
2023/09/09 02:00:58;;;;;;;12.13;10.07;;;18.60;99.90;;;;;;4923969;29;20775;-84
2023/09/09 02:03:25;;;;;;;12.25;10.93;;;18.60;99.90;;;;;;4926616;29;20097;-84
2023/09/09 02:05:50;;;;;;;11.40;10.02;;;18.60;99.90;;;;;;4930187;29;20837;-84
2023/09/09 02:08:16;;;;;;;14.55;9.90;;;18.60;99.90;;;;;;4923897;29;20066;-83
2023/09/09 02:10:42;;;;;;;12.43;9.50;;;18.50;99.90;;;;;;4917708;29;20042;-84
2023/09/09 02:13:08;;;;;;;11.27;9.48;;;18.50;99.90;;;;;;4922088;29;20036;-84
2023/09/09 02:15:33;;;;;;;11.55;9.30;;;18.50;99.90;;;;;;4925192;29;20039;-84
2023/09/09 02:17:59;;;;;;;11.82;8.88;;;18.40;99.90;;;;;;4927732;29;20830;-83
2023/09/09 02:20:25;;;;;;;11.85;8.95;;;18.40;99.90;;;;;;4926824;29;20667;-84
2023/09/09 02:22:50;;;;;;;10.45;8.98;;;18.40;99.90;;;;;;4943999;28;20123;-84
2023/09/09 02:25:17;;;;;;;10.27;9.18;;;18.40;99.90;;;;;;4920261;29;20080;-84
2023/09/09 02:27:42;;;;;;;11.27;8.95;;;18.30;99.90;;;;;;4926556;29;20031;-83
2023/09/09 02:30:08;;;;;;;9.82;8.55;;;18.30;99.90;;;;;;4944342;28;20810;-83
2023/09/09 02:32:34;;;;;;;11.02;9.18;;;18.20;99.90;;;;;;4932234;29;20043;-84
2023/09/09 02:34:59;;;;;;;9.85;8.73;;;18.20;99.90;;;;;;4946265;28;20104;-83
2023/09/09 02:37:26;;;;;;;11.15;8.75;;;18.20;99.90;;;;;;4924033;29;20489;-83
2023/09/09 02:39:52;;;;;;;12.32;9.98;;;18.20;99.90;;;;;;4926180;29;20031;-84
2023/09/09 02:42:21;;;;;;;12.25;9.00;;;18.20;99.90;;;;;;4925902;29;20039;-84
2023/09/09 02:44:49;;;;;;;12.05;9.70;;;18.20;99.90;;;;;;4937924;29;20043;-84
2023/09/09 02:47:15;;;;;;;11.90;10.13;;;18.20;99.90;;;;;;4921856;29;20028;-82
2023/09/09 02:49:43;;;;;;;10.73;9.60;;;18.10;99.90;;;;;;4928170;29;20046;-84
2023/09/09 02:52:09;;;;;;;9.98;8.98;;;18.10;99.90;;;;;;4930639;29;20743;-83
2023/09/09 02:54:35;;;;;;;10.35;8.90;;;18.10;99.90;;;;;;4935492;29;20182;-84
2023/09/09 02:57:03;;;;;;;11.25;9.48;;;18.10;99.90;;;;;;4922716;29;20075;-83
2023/09/09 02:59:30;;;;;;;13.10;10.43;;;18.10;99.90;;;;;;4929112;28;20111;-85
2023/09/09 03:01:55;;;;;;;10.88;9.40;;;18.10;99.90;;;;;;4927640;29;20130;-84
2023/09/09 03:04:21;;;;;;;10.73;9.15;;;18.10;99.90;;;;;;4926454;29;20102;-83
2023/09/09 03:06:46;;;;;;;14.20;9.23;;;18.10;99.90;;;;;;4922620;29;20028;-84
2023/09/09 03:09:14;;;;;;;14.10;9.85;;;18.00;99.90;;;;;;4946725;28;20046;-84
2023/09/09 03:11:39;;;;;;;10.65;9.27;;;18.00;99.90;;;;;;4945201;29;20438;-84
2023/09/09 03:14:05;;;;;;;13.60;8.80;;;18.00;99.90;;;;;;4944296;29;20032;-84
2023/09/09 03:16:30;;;;;;;12.23;8.52;;;18.00;99.90;;;;;;4925177;29;20070;-83
2023/09/09 03:18:56;;;;;;;11.50;8.60;;;17.90;99.90;;;;;;4929956;29;20031;-84
2023/09/09 03:21:21;;;;;;;11.50;8.60;;;17.90;99.90;;;;;;4916044;29;20040;-83
2023/09/09 03:23:47;;;;;;;10.73;8.68;;;17.90;99.90;;;;;;4929553;29;20036;-83
2023/09/09 03:26:18;;;;;;;9.95;8.55;;;17.90;99.90;;;;;;4925263;29;20036;-82
2023/09/09 03:28:45;;;;;;;11.55;8.05;;;17.90;99.90;;;;;;4928628;29;20512;-84
2023/09/09 03:31:11;;;;;;;12.40;9.30;;;17.80;99.90;;;;;;4917930;29;20032;-83
2023/09/09 03:33:37;;;;;;;10.38;8.50;;;17.80;99.90;;;;;;4942355;28;20115;-83
2023/09/09 03:36:03;;;;;;;10.52;8.88;;;17.80;99.90;;;;;;4919331;29;20035;-84
2023/09/09 03:38:29;;;;;;;10.45;8.65;;;17.80;99.90;;;;;;4926616;29;20034;-83
2023/09/09 03:40:54;;;;;;;10.23;8.60;;;17.80;99.90;;;;;;4929660;29;20114;-83
2023/09/09 03:43:20;;;;;;;10.27;9.27;;;17.80;99.90;;;;;;4926249;29;20060;-83
2023/09/09 03:45:45;;;;;;;10.50;8.57;;;17.80;99.90;;;;;;4929114;29;20037;-84
2023/09/09 03:48:11;;;;;;;9.23;8.00;;;17.70;99.90;;;;;;4929789;29;20603;-83
2023/09/09 03:50:36;;;;;;;10.43;8.18;;;17.70;99.90;;;;;;4930445;29;20028;-83
2023/09/09 03:53:02;;;;;;;8.88;7.97;;;17.70;99.90;;;;;;4924829;29;20124;-84
2023/09/09 03:55:28;;;;;;;12.63;8.38;;;17.60;99.90;;;;;;4928325;29;20493;-84
2023/09/09 03:57:53;;;;;;;10.75;8.00;;;17.60;99.90;;;;;;4925758;29;20120;-84
2023/09/09 04:00:19;;;;;;;11.02;8.30;;;17.60;99.90;;;;;;4920551;29;20039;-84
2023/09/09 04:02:45;;;;;;;10.43;8.35;;;17.50;99.90;;;;;;4932203;29;20083;-83
2023/09/09 04:05:11;;;;;;;10.50;8.63;;;17.50;99.90;;;;;;4924721;29;20039;-84
2023/09/09 04:07:36;;;;;;;8.75;7.50;;;17.50;99.90;;;;;;4926998;29;20042;-84
2023/09/09 04:10:03;;;;;;;9.18;8.13;;;17.50;99.90;;;;;;4934777;29;20107;-84
2023/09/09 04:12:28;;;;;;;9.07;8.18;;;17.50;99.90;;;;;;4921269;29;20027;-82
2023/09/09 04:14:54;;;;;;;9.50;8.38;;;17.50;99.90;;;;;;4936729;29;20040;-82
2023/09/09 04:17:20;;;;;;;10.65;8.48;;;17.50;99.90;;;;;;4915415;29;20050;-83
2023/09/09 04:19:45;;;;;;;12.32;8.48;;;17.50;99.90;;;;;;4918485;29;20303;-84
2023/09/09 04:22:11;;;;;;;10.52;8.07;;;17.50;99.90;;;;;;4925197;29;20510;-84
2023/09/09 04:24:36;;;;;;;10.05;7.43;;;17.50;99.90;;;;;;4952719;28;20139;-84
2023/09/09 04:27:02;;;;;;;11.65;8.05;;;17.50;99.90;;;;;;4920756;29;20027;-83
2023/09/09 04:29:28;;;;;;;9.30;7.72;;;17.40;99.90;;;;;;4924867;29;20066;-83
2023/09/09 04:31:54;;;;;;;9.10;7.53;;;17.50;99.90;;;;;;4921604;29;20099;-84
2023/09/09 04:34:19;;;;;;;8.63;7.25;;;17.40;99.90;;;;;;4938331;29;20059;-83
2023/09/09 04:36:45;;;;;;;8.93;7.57;;;17.40;99.90;;;;;;4926990;29;20102;-82
2023/09/09 04:39:13;;;;;;;8.27;7.50;;;17.40;99.90;;;;;;4928386;29;20061;-84
2023/09/09 04:41:39;;;;;;;10.50;7.65;;;17.40;99.90;;;;;;4923948;29;20098;-83
2023/09/09 04:44:05;;;;;;;11.10;7.18;;;17.40;99.90;;;;;;4920218;29;20119;-84
2023/09/09 04:46:31;;;;;;;10.15;7.18;;;17.30;99.90;;;;;;4941370;29;20094;-85
2023/09/09 04:48:56;;;;;;;8.77;7.05;;;17.30;99.90;;;;;;4926330;29;20492;-83
2023/09/09 04:51:22;;;;;;;10.00;7.65;;;17.40;99.90;;;;;;4924028;29;20249;-84
2023/09/09 04:53:48;;;;;;;9.07;7.88;;;17.30;99.90;;;;;;4936869;28;20046;-84
2023/09/09 04:56:13;;;;;;;9.82;7.88;;;17.40;99.90;;;;;;4939715;28;20119;-83
2023/09/09 04:58:39;;;;;;;10.40;8.00;;;17.40;99.90;;;;;;4929487;29;20031;-84
2023/09/09 05:01:05;;;;;;;10.65;9.38;;;17.30;99.90;;;;;;4918686;29;20501;-83
2023/09/09 05:03:30;;;;;;;10.48;8.32;;;17.40;99.90;;;;;;4939038;28;20475;-83
2023/09/09 05:05:56;;;;;;;11.10;7.60;;;17.40;99.90;;;;;;4917604;29;20036;-83
2023/09/09 05:08:21;;;;;;;10.07;7.80;;;17.30;99.90;;;;;;4913195;29;20055;-83
2023/09/09 05:10:47;;;;;;;8.85;7.40;;;17.40;99.90;;;;;;4920131;29;20031;-82
2023/09/09 05:13:12;;;;;;;11.65;8.25;;;17.30;99.90;;;;;;4922416;29;20073;-85
2023/09/09 05:15:38;;;;;;;10.98;8.25;;;17.30;99.90;;;;;;4918578;29;20131;-83
2023/09/09 05:18:04;;;;;;;8.82;7.93;;;17.30;99.90;;;;;;4929366;29;20094;-84
2023/09/09 05:20:30;;;;;;;10.88;8.07;;;17.30;99.90;;;;;;4917508;29;20063;-83
2023/09/09 05:22:56;;;;;;;9.48;7.50;;;17.30;99.90;;;;;;4926064;29;20024;-83
2023/09/09 05:25:21;;;;;;;9.38;6.80;;;17.20;99.90;;;;;;4914806;29;20126;-83
2023/09/09 05:27:47;;;;;;;8.07;7.05;;;17.20;99.90;;;;;;4916145;29;20111;-83
2023/09/09 05:30:12;;;;;;;9.80;6.95;;;17.20;99.90;;;;;;4923836;29;20055;-84
2023/09/09 05:32:38;;;;;;;12.98;7.53;;;17.20;99.90;;;;;;4922531;29;20111;-83
2023/09/09 05:35:06;;;;;;;8.00;6.93;;;17.20;99.90;;;;;;4920882;29;20043;-83
2023/09/09 05:37:32;;;;;;;8.07;6.93;;;17.20;99.90;;;;;;4921567;29;20063;-82
2023/09/09 05:39:58;;;;;;;7.45;6.47;;;17.20;99.90;;;;;;4926697;29;20084;-83
2023/09/09 05:42:23;;;;;;;7.13;6.43;;;17.20;99.90;;;;;;4917387;29;20083;-82
2023/09/09 05:44:49;;;;;;;8.63;7.00;;;17.20;99.90;;;;;;4926199;29;20031;-82
2023/09/09 05:47:15;;;;;;;9.38;7.43;;;17.20;99.90;;;;;;4921110;29;20074;-83
2023/09/09 05:49:40;;;;;;;10.00;7.28;;;17.30;99.90;;;;;;4926275;29;20071;-83
2023/09/09 05:52:07;;;;;;;11.27;7.95;;;17.30;99.90;;;;;;4927715;29;20389;-82
2023/09/09 05:54:32;;;;;;;9.07;7.72;;;17.40;99.90;;;;;;4942296;29;20039;-82
2023/09/09 05:56:58;;;;;;;7.85;6.93;;;17.40;99.90;;;;;;4927670;29;20044;-82
2023/09/09 05:59:23;;;;;;;8.38;6.88;;;17.50;99.90;;;;;;4927553;29;20039;-82
2023/09/09 06:01:49;;;;;;;8.80;7.28;;;17.50;99.90;;;;;;4926096;29;20130;-83
2023/09/09 06:04:18;;;;;;;10.32;8.02;;;17.60;99.90;;;;;;4927931;29;20032;-81
2023/09/09 06:06:45;;;;;;;11.60;7.63;;;17.70;99.90;;;;;;4926993;29;20087;-83
2023/09/09 06:09:11;;;;;;;9.80;7.82;;;17.70;99.90;;;;;;4926294;29;20032;-81
2023/09/09 06:11:37;;;;;;;8.40;7.05;;;17.80;99.90;;;;;;4927716;29;20036;-82
2023/09/09 06:14:02;;;;;;;10.02;8.07;;;17.90;99.90;;;;;;4927927;29;20435;-82
2023/09/09 06:16:28;;;;;;;12.77;8.15;;;18.00;99.90;;;;;;4927997;29;20127;-82
2023/09/09 06:18:54;;;;;;;10.13;7.30;;;18.10;99.90;;;;;;4926934;29;20136;-83
2023/09/09 06:21:21;;;;;;;21.90;7.60;;;18.20;99.90;;;;;;4926512;29;20557;-82
2023/09/09 06:23:46;;;;;;;65.05;8.90;;;18.20;99.90;;;;;;4926328;29;20083;-84
2023/09/09 06:26:12;;;;;;;72.95;9.93;;;18.30;99.90;;;;;;4925570;29;20947;-83
2023/09/09 06:28:38;;;;;;;68.25;8.98;;;18.40;99.90;;;;;;4927037;29;20230;-83
2023/09/09 06:31:04;;;;;;;47.10;8.45;;;18.50;99.90;;;;;;4937741;29;20040;-83
2023/09/09 06:33:29;;;;;;;30.65;7.97;;;18.50;99.90;;;;;;4941556;29;20123;-83
2023/09/09 06:35:55;;;;;;;16.63;7.60;;;18.60;99.90;;;;;;4911082;29;20147;-83
2023/09/09 06:38:21;;;;;;;11.93;7.22;;;18.70;99.90;;;;;;4923026;29;20035;-83
2023/09/09 06:40:47;;;;;;;17.50;6.57;;;18.90;99.90;;;;;;4923299;29;20135;-83
2023/09/09 06:43:16;;;;;;;12.13;5.93;;;19.00;99.90;;;;;;4924665;29;20145;-83
2023/09/09 06:45:41;;;;;;;10.10;6.25;;;19.10;99.90;;;;;;4911912;29;20050;-82
2023/09/09 06:48:07;;;;;;;9.75;6.65;;;19.20;99.90;;;;;;4928026;29;20350;-83
2023/09/09 06:50:33;;;;;;;8.40;6.20;;;19.40;99.90;;;;;;4929758;29;20099;-83
2023/09/09 06:52:58;;;;;;;8.07;6.63;;;19.50;99.90;;;;;;4930033;29;20628;-83
2023/09/09 06:55:24;;;;;;;7.40;6.60;;;19.70;99.90;;;;;;4926058;29;20510;-83
2023/09/09 06:57:50;;;;;;;8.35;6.65;;;19.80;99.90;;;;;;4912474;29;20115;-83
2023/09/09 07:00:16;;;;;;;7.60;6.78;;;19.90;99.90;;;;;;4926255;29;20063;-83
2023/09/09 07:02:41;;;;;;;8.68;6.38;;;20.10;99.90;;;;;;4923911;29;20676;-82
2023/09/09 07:05:07;;;;;;;8.30;6.75;;;20.20;99.90;;;;;;4945055;29;20217;-83
2023/09/09 07:07:33;;;;;;;8.68;6.65;;;20.40;99.90;;;;;;4945857;29;20027;-83
2023/09/09 07:09:59;;;;;;;11.23;6.20;;;20.60;99.90;;;;;;4945097;29;20091;-83
2023/09/09 07:12:25;;;;;;;8.07;6.53;;;20.70;99.90;;;;;;4945588;29;20028;-83
2023/09/09 07:14:51;;;;;;;8.02;6.15;;;20.80;99.90;;;;;;4945269;29;20450;-83
2023/09/09 07:17:17;;;;;;;9.65;6.90;;;20.90;99.90;;;;;;4929689;29;20032;-82
2023/09/09 07:19:42;;;;;;;8.73;6.70;;;21.00;99.90;;;;;;4930505;29;20038;-83
2023/09/09 07:22:08;;;;;;;9.23;6.75;;;21.20;99.90;;;;;;4929302;29;21094;-82
2023/09/09 07:24:33;;;;;;;12.43;6.82;;;21.40;99.90;;;;;;4930707;29;20032;-83
2023/09/09 07:27:03;;;;;;;8.15;6.05;;;21.50;99.90;;;;;;4929858;29;20027;-84
2023/09/09 07:29:29;;;;;;;8.65;6.25;;;21.60;99.90;;;;;;4915826;29;20058;-83
2023/09/09 07:31:55;;;;;;;9.73;6.13;;;21.70;99.90;;;;;;4926234;29;20151;-83
2023/09/09 07:34:20;;;;;;;11.95;6.60;;;21.90;99.90;;;;;;4917331;29;20063;-83
2023/09/09 07:36:47;;;;;;;8.20;6.45;;;22.00;99.90;;;;;;4930583;29;20094;-84
2023/09/09 07:39:14;;;;;;;8.82;6.35;;;22.30;99.90;;;;;;4930887;29;20084;-83
2023/09/09 07:41:39;;;;;;;9.80;6.63;;;22.90;99.90;;;;;;4931965;29;20036;-84
2023/09/09 07:44:06;;;;;;;7.68;6.20;;;23.20;99.90;;;;;;4912204;29;20040;-84
2023/09/09 07:46:32;;;;;;;7.57;5.82;;;23.80;99.90;;;;;;4926282;29;20036;-84
2023/09/09 07:48:58;;;;;;;7.07;5.95;;;24.30;99.90;;;;;;4926062;29;20039;-84
2023/09/09 07:51:23;;;;;;;6.95;5.50;;;25.10;99.90;;;;;;4911729;29;20054;-84
2023/09/09 07:53:49;;;;;;;6.38;5.05;;;26.40;99.90;;;;;;4924693;29;20088;-83
2023/09/09 07:56:15;;;;;;;7.22;5.13;;;28.10;99.90;;;;;;4920294;29;20150;-84
2023/09/09 07:58:40;;;;;;;7.65;4.63;;;29.70;99.90;;;;;;4910851;29;20032;-83
2023/09/09 08:01:07;;;;;;;7.82;5.53;;;30.80;99.90;;;;;;4910165;29;20262;-84
2023/09/09 08:03:33;;;;;;;7.75;4.93;;;31.90;99.90;;;;;;4925581;29;20058;-85
2023/09/09 08:06:06;;;;;;;4.80;4.20;;;33.00;97.50;;;;;;4929134;29;20385;-84
2023/09/09 08:08:35;;;;;;;6.00;4.85;;;34.00;93.10;;;;;;4929318;29;20028;-84
2023/09/09 08:11:05;;;;;;;9.50;5.03;;;34.70;89.70;;;;;;4924695;29;20086;-85
2023/09/09 08:13:31;;;;;;;7.68;5.10;;;35.20;89.60;;;;;;4930718;29;20122;-85
2023/09/09 08:16:00;;;;;;;5.93;4.82;;;35.60;82.80;;;;;;4929244;29;20043;-82
2023/09/09 08:18:26;;;;;;;5.90;4.88;;;35.80;81.60;;;;;;4930126;29;20494;-84
2023/09/09 08:20:52;;;;;;;5.55;4.95;;;36.00;77.60;;;;;;4930223;29;20097;-82
2023/09/09 08:23:18;;;;;;;9.70;4.53;;;36.30;76.20;;;;;;4930442;29;20086;-83
2023/09/09 08:25:44;;;;;;;5.55;4.32;;;36.40;73.60;;;;;;4929578;29;20054;-82
2023/09/09 08:28:10;;;;;;;5.93;4.50;;;36.80;72.10;;;;;;4929705;29;20051;-84
2023/09/09 08:30:35;;;;;;;7.80;4.70;;;37.00;67.90;;;;;;4942938;29;20144;-86
2023/09/09 08:33:01;;;;;;;4.97;3.85;;;37.30;68.20;;;;;;4928093;29;20090;-82
2023/09/09 08:35:29;;;;;;;5.03;4.00;;;37.50;67.70;;;;;;4944280;29;20043;-85
2023/09/09 08:37:55;;;;;;;5.25;3.75;;;37.80;63.60;;;;;;4928465;29;20039;-85
2023/09/09 08:40:21;;;;;;;6.35;3.40;;;37.90;62.90;;;;;;4928233;29;20640;-85
2023/09/09 08:43:08;;;;;;;6.88;3.88;;;38.40;60.90;;;;;;4929799;29;20043;-86
2023/09/09 08:45:43;;;;;;;5.13;3.72;;;38.60;60.30;;;;;;4912287;29;20038;-85
2023/09/09 08:48:11;;;;;;;4.38;3.30;;;38.80;62.10;;;;;;4911587;29;20343;-85
2023/09/09 08:50:40;;;;;;;4.40;3.55;;;39.00;56.90;;;;;;4929552;29;20537;-85
2023/09/09 08:53:07;;;;;;;6.35;4.07;;;39.30;58.20;;;;;;4944243;29;20616;-85
2023/09/09 08:55:32;;;;;;;5.78;3.42;;;39.70;57.30;;;;;;4927740;29;20047;-83
2023/09/09 08:57:59;;;;;;;4.30;3.90;;;39.90;58.40;;;;;;4916982;29;20032;-82
2023/09/09 09:00:33;;;;;;;5.35;3.60;;;40.30;54.80;;;;;;4927306;29;20044;-84
2023/09/09 09:03:03;;;;;;;6.28;3.40;;;40.40;55.60;;;;;;4927591;29;20043;-85
2023/09/09 09:05:29;;;;;;;;;;;40.80;52.90;;;;;;4929098;29;20032;-85
2023/09/09 09:07:55;;;;;;;4.55;3.15;;;41.30;54.00;;;;;;4929102;29;19965;-84
2023/09/09 09:10:21;;;;;;;6.00;3.10;;;41.50;53.30;;;;;;4927299;29;20548;-84
2023/09/09 09:12:46;;;;;;;6.22;3.03;;;41.60;51.30;;;;;;4928666;29;20055;-82
2023/09/09 09:15:13;;;;;;;7.05;3.20;;;41.70;51.60;;;;;;4929262;29;20071;-82
2023/09/09 09:17:40;;;;;;;4.55;3.03;;;41.80;50.30;;;;;;4928620;29;20030;-82
2023/09/09 09:20:07;;;;;;;4.60;3.40;;;41.90;50.20;;;;;;4928787;29;20031;-82
2023/09/09 09:22:34;;;;;;;5.80;2.90;;;42.00;52.00;;;;;;4926999;29;20034;-82
2023/09/09 09:24:59;;;;;;;4.85;3.10;;;42.50;50.80;;;;;;4909352;29;20020;-83
2023/09/09 09:27:30;;;;;;;6.18;3.05;;;43.00;46.70;;;;;;4909834;29;20375;-85
2023/09/09 09:29:55;;;;;;;4.25;3.13;;;43.30;47.90;;;;;;4909398;29;20028;-83
2023/09/09 09:32:21;;;;;;;5.35;3.17;;;43.60;45.60;;;;;;4909225;29;20043;-81
2023/09/09 09:34:49;;;;;;;4.18;2.97;;;43.70;45.00;;;;;;4910038;29;20031;-83
2023/09/09 09:37:17;;;;;;;4.95;2.95;;;43.90;46.10;;;;;;4918034;29;20046;-82
2023/09/09 09:39:45;;;;;;;3.60;2.90;;;43.90;45.20;;;;;;4926978;29;20409;-82
2023/09/09 09:42:11;;;;;;;5.88;3.35;;;44.40;43.80;;;;;;4928412;29;20051;-81
2023/09/09 09:44:37;;;;;;;4.82;2.80;;;44.60;45.40;;;;;;4928608;29;20059;-83
2023/09/09 09:47:04;;;;;;;4.65;2.90;;;44.50;44.80;;;;;;4926847;29;20066;-83
2023/09/09 09:49:40;;;;;;;3.38;2.95;;;44.70;44.30;;;;;;4928697;29;20028;-82
2023/09/09 09:52:07;;;;;;;3.50;2.70;;;45.00;43.00;;;;;;4928158;29;20779;-82
2023/09/09 09:54:35;;;;;;;4.40;2.80;;;45.20;43.80;;;;;;4928582;29;20092;-82
2023/09/09 09:57:03;;;;;;;5.45;2.45;;;45.30;44.70;;;;;;4928138;29;20814;-82
2023/09/09 09:59:31;;;;;;;4.25;2.67;;;45.60;39.60;;;;;;4927100;29;20035;-82
2023/09/09 10:02:00;;;;;;;3.10;2.80;;;46.00;36.90;;;;;;4927980;29;20509;-82
2023/09/09 10:04:30;;;;;;;3.72;2.80;;;46.10;40.00;;;;;;4928801;29;20032;-82
2023/09/09 10:06:59;;;;;;;3.72;2.70;;;46.30;39.10;;;;;;4943876;29;20036;-84
2023/09/09 10:09:37;;;;;;;2.72;2.53;;;46.50;39.80;;;;;;4929834;29;20020;-83
2023/09/09 10:12:23;;;;;;;3.58;2.85;;;46.20;40.30;;;;;;4928899;29;20169;-83
2023/09/09 10:14:50;;;;;;;3.72;2.65;;;46.10;38.10;;;;;;4929027;29;20062;-83
2023/09/09 10:17:17;;;;;;;4.32;2.65;;;46.50;37.40;;;;;;4927091;29;20242;-84
2023/09/09 10:19:43;;;;;;;3.92;3.22;;;46.30;39.80;;;;;;4930289;29;20032;-83
2023/09/09 10:22:10;;;;;;;4.05;2.83;;;46.50;39.60;;;;;;4928016;29;20031;-83
2023/09/09 10:24:36;;;;;;;5.43;2.70;;;46.50;38.20;;;;;;4931670;29;20101;-83
2023/09/09 10:27:02;;;;;;;4.78;2.50;;;46.50;37.50;;;;;;4929398;29;20118;-83
2023/09/09 10:29:30;;;;;;;5.43;3.03;;;46.50;38.70;;;;;;4928959;29;20032;-84
2023/09/09 10:32:00;;;;;;;3.55;2.80;;;46.60;37.00;;;;;;4930125;29;20042;-84
2023/09/09 10:34:28;;;;;;;3.50;2.60;;;47.00;38.10;;;;;;4928681;29;20039;-83
2023/09/09 10:36:56;;;;;;;6.30;2.72;;;47.30;37.50;;;;;;4929024;29;20581;-83
2023/09/09 10:39:22;;;;;;;4.70;2.65;;;47.30;38.40;;;;;;4929518;29;20031;-84
2023/09/09 10:41:49;;;;;;;3.65;2.55;;;47.70;34.60;;;;;;4928092;29;20876;-84
2023/09/09 10:44:15;;;;;;;4.30;2.50;;;47.80;36.80;;;;;;4927225;29;20111;-83
2023/09/09 10:46:42;;;;;;;3.65;2.83;;;47.60;36.00;;;;;;4927994;29;20036;-83
2023/09/09 10:49:07;;;;;;;2.72;2.38;;;47.90;34.50;;;;;;4928491;29;20032;-84
2023/09/09 10:51:50;;;;;;;4.32;2.40;;;48.00;36.40;;;;;;4928651;29;20108;-84
2023/09/09 10:54:17;;;;;;;5.93;2.63;;;47.80;37.40;;;;;;4916999;29;20071;-84
2023/09/09 10:56:48;;;;;;;3.80;2.42;;;47.90;34.30;;;;;;4908396;29;20067;-84
2023/09/09 10:59:22;;;;;;;2.75;2.33;;;48.00;35.90;;;;;;4908202;29;20111;-84
2023/09/09 11:02:07;;;;;;;5.32;2.50;;;47.90;35.90;;;;;;4909096;29;20051;-84
2023/09/09 11:04:35;;;;;;;5.38;2.47;;;47.90;35.90;;;;;;4909849;29;20100;-83
2023/09/09 11:07:05;;;;;;;3.78;2.50;;;47.50;34.90;;;;;;4926021;29;20020;-87
2023/09/09 11:09:31;;;;;;;;;;;47.80;37.20;;;;;;4927745;29;20024;-84
2023/09/09 11:11:56;;;;;;;4.85;2.17;;;47.70;35.30;;;;;;4909988;29;19946;-84
2023/09/09 11:14:30;;;;;;;3.90;2.42;;;47.60;34.50;;;;;;4910104;29;20028;-83
2023/09/09 11:16:55;;;;;;;3.88;2.30;;;47.40;35.50;;;;;;4909160;29;20127;-85
2023/09/09 11:19:23;;;;;;;6.63;2.42;;;47.20;35.80;;;;;;4909589;29;20120;-84
2023/09/09 11:21:52;;;;;;;4.85;2.22;;;46.90;33.00;;;;;;4909318;29;20043;-83
2023/09/09 11:24:19;;;;;;;5.22;2.53;;;46.30;35.80;;;;;;4935728;29;20068;-83
2023/09/09 11:26:46;;;;;;;5.32;2.30;;;45.40;36.30;;;;;;4940782;29;20039;-84
2023/09/09 11:29:13;;;;;;;6.47;2.70;;;44.10;39.10;;;;;;4944246;28;20032;-85
2023/09/09 11:31:38;;;;;;;5.35;2.90;;;42.30;37.10;;;;;;4925230;29;20046;-84
2023/09/09 11:34:05;;;;;;;5.82;2.80;;;41.00;41.70;;;;;;4915067;29;20032;-84
2023/09/09 11:36:31;;;;;;;6.72;2.47;;;40.10;43.70;;;;;;4931264;29;20032;-85
2023/09/09 11:38:59;;;;;;;6.80;2.95;;;39.60;41.70;;;;;;4929749;29;20110;-85
2023/09/09 11:41:30;;;;;;;5.97;2.88;;;39.10;41.70;;;;;;4930750;29;20123;-87
2023/09/09 11:44:08;;;;;;;9.18;2.92;;;38.50;42.80;;;;;;4929214;29;20027;-83
2023/09/09 11:47:00;;;;;;;9.27;2.88;;;38.10;43.40;;;;;;4930116;29;20036;-83
2023/09/09 11:49:25;;;;;;;5.30;3.00;;;37.90;45.30;;;;;;4584894;29;10000436;-83
2023/09/09 11:51:51;;;;;;;5.88;3.08;;;37.90;44.20;;;;;;4930546;29;20035;-84
2023/09/09 11:54:20;;;;;;;5.60;3.00;;;37.80;45.10;;;;;;4930826;29;20119;-85
2023/09/09 11:56:46;;;;;;;4.88;3.00;;;37.70;45.10;;;;;;4931023;29;20572;-86
2023/09/09 11:59:12;;;;;;;5.38;3.13;;;37.50;44.60;;;;;;4930739;29;20027;-82
2023/09/09 12:01:42;;;;;;;6.70;2.97;;;37.20;45.40;;;;;;4930066;29;20599;-83
2023/09/09 12:04:08;;;;;;;7.97;3.47;;;37.10;46.10;;;;;;4930382;29;20588;-84
2023/09/09 12:06:35;;;;;;;7.47;3.13;;;37.10;49.30;;;;;;4930591;29;20469;-84
2023/09/09 12:09:02;;;;;;;5.10;2.92;;;37.20;48.60;;;;;;4930057;29;20490;-84
2023/09/09 12:11:29;;;;;;;5.30;2.97;;;37.30;48.40;;;;;;4930469;29;20031;-83
2023/09/09 12:13:55;;;;;;;4.57;2.80;;;37.30;48.50;;;;;;4930866;29;20028;-84
2023/09/09 12:16:21;;;;;;;6.45;3.10;;;37.30;50.70;;;;;;4930275;29;20481;-83
2023/09/09 12:18:53;;;;;;;5.88;3.55;;;37.30;50.20;;;;;;4930458;29;20130;-84
2023/09/09 12:21:19;;;;;;;6.05;3.10;;;37.30;49.60;;;;;;4928914;29;20039;-84
2023/09/09 12:23:45;;;;;;;6.43;3.10;;;37.40;49.60;;;;;;4919948;29;20039;-85
2023/09/09 12:26:14;;;;;;;9.23;3.45;;;37.50;50.50;;;;;;4911648;29;20040;-83
2023/09/09 12:28:46;;;;;;;8.13;2.67;;;37.40;47.80;;;;;;4909688;29;20055;-84
2023/09/09 12:31:12;;;;;;;6.10;2.78;;;37.00;46.60;;;;;;4911031;29;20051;-85
2023/09/09 12:33:40;;;;;;;8.38;2.90;;;36.80;45.90;;;;;;4911108;29;20207;-85
2023/09/09 12:36:12;;;;;;;5.65;2.88;;;36.60;46.70;;;;;;4916826;29;20127;-83
2023/09/09 12:38:38;;;;;;;6.53;2.80;;;36.20;46.10;;;;;;4929742;29;20636;-85
2023/09/09 12:41:06;;;;;;;5.50;2.65;;;36.10;47.70;;;;;;4928326;29;20032;-85